createdAt,value
2023-04-11T00:00:11.148Z,30.11
2023-04-11T00:01:11.192Z,30.08
2023-04-11T00:02:11.240Z,30.10
2023-04-11T00:03:11.724Z,30.08
2023-04-11T00:04:11.289Z,30.08
2023-04-11T00:05:11.120Z,30.10
2023-04-11T00:06:11.164Z,30.10
2023-04-11T00:07:11.127Z,30.10
2023-04-11T00:08:11.113Z,30.08
2023-04-11T00:09:11.197Z,30.07
2023-04-11T00:10:11.506Z,30.07
2023-04-11T00:11:11.162Z,30.10
2023-04-11T00:12:11.060Z,30.07
2023-04-11T00:13:11.124Z,30.07
2023-04-11T00:14:11.015Z,30.04
2023-04-11T00:15:11.092Z,30.03
2023-04-11T00:16:11.104Z,30.04
2023-04-11T00:17:11.094Z,30.04
2023-04-11T00:18:11.003Z,30.03
2023-04-11T00:19:10.965Z,30.04
2023-04-11T00:20:10.994Z,30.03
2023-04-11T00:21:11.061Z,30.04
2023-04-11T00:22:10.935Z,30.04
2023-04-11T00:23:11.053Z,30.00
2023-04-11T00:24:11.017Z,30.00
2023-04-11T00:25:10.945Z,30.03
2023-04-11T00:26:11.130Z,29.99
2023-04-11T00:27:10.981Z,30.00
2023-04-11T00:28:11.031Z,29.99
2023-04-11T00:29:10.991Z,30.00
2023-04-11T00:30:10.885Z,30.00
2023-04-11T00:31:10.981Z,29.97
2023-04-11T00:32:10.921Z,30.00
2023-04-11T00:33:10.989Z,29.99
2023-04-11T00:34:10.882Z,29.99
2023-04-11T00:35:10.843Z,29.97
2023-04-11T00:36:11.052Z,29.99
2023-04-11T00:37:10.980Z,29.97
2023-04-11T00:38:10.819Z,29.97
2023-04-11T00:39:10.849Z,29.97
2023-04-11T00:40:10.844Z,29.96
2023-04-11T00:41:10.846Z,29.99
2023-04-11T00:42:10.818Z,29.96
2023-04-11T00:43:10.803Z,29.94
2023-04-11T00:44:10.878Z,29.93
2023-04-11T00:45:10.890Z,29.96
2023-04-11T00:46:10.821Z,29.94
2023-04-11T00:47:10.776Z,29.94
2023-04-11T00:48:10.905Z,29.93
2023-04-11T00:49:10.731Z,29.94
2023-04-11T00:50:10.842Z,29.93
2023-04-11T00:51:10.864Z,29.93
2023-04-11T00:52:10.715Z,29.93
2023-04-11T00:53:10.840Z,29.91
2023-04-11T00:54:10.730Z,29.90
2023-04-11T00:55:10.842Z,29.90
2023-04-11T00:56:10.700Z,29.90
2023-04-11T00:57:10.787Z,29.91
2023-04-11T00:58:10.659Z,29.91
2023-04-11T00:59:10.695Z,29.88
2023-04-11T01:00:10.820Z,29.90
2023-04-11T01:01:10.797Z,29.88
2023-04-11T01:02:10.778Z,29.88
2023-04-11T01:03:10.821Z,29.87
2023-04-11T01:04:10.948Z,29.87
2023-04-11T01:05:10.755Z,29.87
2023-04-11T01:06:10.650Z,29.87
2023-04-11T01:07:10.744Z,29.85
2023-04-11T01:08:10.637Z,29.84
2023-04-11T01:09:10.733Z,29.90
2023-04-11T01:10:10.646Z,29.85
2023-04-11T01:11:10.712Z,29.85
2023-04-11T01:12:10.588Z,29.84
2023-04-11T01:13:10.626Z,29.87
2023-04-11T01:14:10.602Z,29.85
2023-04-11T01:15:10.590Z,29.85
2023-04-11T01:16:10.660Z,29.84
2023-04-11T01:17:10.919Z,29.84
2023-04-11T01:18:10.740Z,29.85
2023-04-11T01:19:10.704Z,29.84
2023-04-11T01:20:10.637Z,29.85
2023-04-11T01:21:10.639Z,29.84
2023-04-11T01:22:10.612Z,29.84
2023-04-11T01:23:10.650Z,29.84
2023-04-11T01:24:10.656Z,29.83
2023-04-11T01:25:10.637Z,29.83
2023-04-11T01:26:10.712Z,29.83
2023-04-11T01:27:10.760Z,29.83
2023-04-11T01:28:10.791Z,29.83
2023-04-11T01:29:10.669Z,29.80
2023-04-11T01:30:10.778Z,29.80
2023-04-11T01:31:10.738Z,29.79
2023-04-11T01:32:10.650Z,29.77
2023-04-11T01:33:11.031Z,29.83
2023-04-11T01:34:10.809Z,29.80
2023-04-11T01:35:10.716Z,29.77
2023-04-11T01:36:10.747Z,29.79
2023-04-11T01:37:10.861Z,29.76
2023-04-11T01:38:10.729Z,29.77
2023-04-11T01:39:10.743Z,29.74
2023-04-11T01:40:10.867Z,29.77
2023-04-11T01:41:10.780Z,29.77
2023-04-11T01:42:10.789Z,29.74
2023-04-11T01:43:10.899Z,29.76
2023-04-11T01:44:10.814Z,29.73
2023-04-11T01:45:10.808Z,29.74
2023-04-11T01:46:10.823Z,29.72
2023-04-11T01:47:10.952Z,29.72
2023-04-11T01:48:11.017Z,29.72
2023-04-11T01:49:10.972Z,29.73
2023-04-11T01:50:10.908Z,29.72
2023-04-11T01:51:11.015Z,29.72
2023-04-11T01:52:10.930Z,29.73
2023-04-11T01:53:11.138Z,29.73
2023-04-11T01:54:10.937Z,29.73
2023-04-11T01:55:10.904Z,29.70
2023-04-11T01:56:11.048Z,29.73
2023-04-11T01:57:11.093Z,29.72
2023-04-11T01:58:11.073Z,29.73
2023-04-11T01:59:11.105Z,29.73
2023-04-11T02:00:11.013Z,29.73
2023-04-11T02:01:11.133Z,29.72
2023-04-11T02:02:11.191Z,29.70
2023-04-11T02:03:11.163Z,29.72
2023-04-11T02:04:11.139Z,29.70
2023-04-11T02:05:11.026Z,29.72
2023-04-11T02:06:11.021Z,29.73
2023-04-11T02:07:10.993Z,29.70
2023-04-11T02:08:11.035Z,29.72
2023-04-11T02:09:11.036Z,29.73
2023-04-11T02:10:11.001Z,29.72
2023-04-11T02:11:11.061Z,29.72
2023-04-11T02:12:11.082Z,29.73
2023-04-11T02:13:11.061Z,29.72
2023-04-11T02:14:11.081Z,29.73
2023-04-11T02:15:11.087Z,29.73
2023-04-11T02:16:11.133Z,29.72
2023-04-11T02:17:11.106Z,29.73
2023-04-11T02:18:11.133Z,29.72
2023-04-11T02:19:11.136Z,29.69
2023-04-11T02:20:11.148Z,29.67
2023-04-11T02:21:11.175Z,29.70
2023-04-11T02:22:11.161Z,29.69
2023-04-11T02:23:11.195Z,29.72
2023-04-11T02:24:11.183Z,29.70
2023-04-11T02:25:11.211Z,29.69
2023-04-11T02:26:11.285Z,29.69
2023-04-11T02:27:11.266Z,29.67
2023-04-11T02:28:11.275Z,29.69
2023-04-11T02:29:11.274Z,29.66
2023-04-11T02:30:11.331Z,29.67
2023-04-11T02:31:11.527Z,29.67
2023-04-11T02:32:11.490Z,29.67
2023-04-11T02:33:11.375Z,29.67
2023-04-11T02:34:11.380Z,29.66
2023-04-11T02:35:11.388Z,29.66
2023-04-11T02:36:11.436Z,29.66
2023-04-11T02:37:11.445Z,29.63
2023-04-11T02:38:11.480Z,29.63
2023-04-11T02:39:11.449Z,29.62
2023-04-11T02:40:11.469Z,29.62
2023-04-11T02:41:11.552Z,29.63
2023-04-11T02:42:11.525Z,29.63
2023-04-11T02:43:11.586Z,29.62
2023-04-11T02:44:11.581Z,29.63
2023-04-11T02:45:11.601Z,29.63
2023-04-11T02:46:13.347Z,29.64
2023-04-11T02:47:11.744Z,29.62
2023-04-11T02:48:11.646Z,29.62
2023-04-11T02:49:11.727Z,29.63
2023-04-11T02:50:11.735Z,29.59
2023-04-11T02:51:11.737Z,29.60
2023-04-11T02:52:11.785Z,29.60
2023-04-11T02:53:11.792Z,29.62
2023-04-11T02:54:11.842Z,29.62
2023-04-11T02:55:11.869Z,29.59
2023-04-11T02:56:11.855Z,29.59
2023-04-11T02:57:11.872Z,29.57
2023-04-11T02:58:11.890Z,29.57
2023-04-11T02:59:11.939Z,29.60
2023-04-11T03:00:11.936Z,29.59
2023-04-11T03:01:12.100Z,29.59
2023-04-11T03:02:12.233Z,29.59
2023-04-11T03:03:12.142Z,29.56
2023-04-11T03:04:12.066Z,29.56
2023-04-11T03:05:12.073Z,29.59
2023-04-11T03:06:12.099Z,29.60
2023-04-11T03:07:12.087Z,29.57
2023-04-11T03:08:12.122Z,29.62
2023-04-11T03:09:12.168Z,29.62
2023-04-11T03:10:12.177Z,29.62
2023-04-11T03:11:12.184Z,29.60
2023-04-11T03:12:12.195Z,29.62
2023-04-11T03:13:12.218Z,29.62
2023-04-11T03:14:12.333Z,29.60
2023-04-11T03:15:12.302Z,29.62
2023-04-11T03:16:12.331Z,29.63
2023-04-11T03:17:12.364Z,29.63
2023-04-11T03:18:12.376Z,29.60
2023-04-11T03:19:12.385Z,29.62
2023-04-11T03:20:12.398Z,29.63
2023-04-11T03:21:12.458Z,29.60
2023-04-11T03:22:12.463Z,29.62
2023-04-11T03:23:12.571Z,29.62
2023-04-11T03:24:12.474Z,29.62
2023-04-11T03:25:12.527Z,29.60
2023-04-11T03:26:12.597Z,29.59
2023-04-11T03:27:12.595Z,29.62
2023-04-11T03:28:12.611Z,29.59
2023-04-11T03:29:12.644Z,29.62
2023-04-11T03:30:12.654Z,29.62
2023-04-11T03:31:12.760Z,29.60
2023-04-11T03:32:12.727Z,29.57
2023-04-11T03:33:12.775Z,29.59
2023-04-11T03:34:12.782Z,29.57
2023-04-11T03:35:12.831Z,29.56
2023-04-11T03:36:12.956Z,29.53
2023-04-11T03:37:12.908Z,29.52
2023-04-11T03:38:13.072Z,29.52
2023-04-11T03:39:12.995Z,29.50
2023-04-11T03:40:13.021Z,29.48
2023-04-11T03:41:13.083Z,29.46
2023-04-11T03:42:13.128Z,29.49
2023-04-11T03:43:13.168Z,29.46
2023-04-11T03:44:13.234Z,29.48
2023-04-11T03:45:13.235Z,29.45
2023-04-11T03:46:13.355Z,29.44
2023-04-11T03:47:13.352Z,29.42
2023-04-11T03:48:13.391Z,29.44
2023-04-11T03:49:13.410Z,29.44
2023-04-11T03:50:13.490Z,29.45
2023-04-11T03:51:13.543Z,29.44
2023-04-11T03:52:13.520Z,29.40
2023-04-11T03:53:13.615Z,29.44
2023-04-11T03:54:13.609Z,29.40
2023-04-11T03:55:13.655Z,29.42
2023-04-11T03:56:13.684Z,29.42
2023-04-11T03:57:13.725Z,29.42
2023-04-11T03:58:13.782Z,29.45
2023-04-11T03:59:13.871Z,29.40
2023-04-11T04:00:13.858Z,29.42
2023-04-11T04:01:13.904Z,29.45
2023-04-11T04:02:14.974Z,29.46
2023-04-11T04:03:14.145Z,29.46
2023-04-11T04:04:14.052Z,29.45
2023-04-11T04:05:14.093Z,29.48
2023-04-11T04:06:14.060Z,29.46
2023-04-11T04:07:14.098Z,29.49
2023-04-11T04:08:14.155Z,29.50
2023-04-11T04:09:14.152Z,29.49
2023-04-11T04:10:14.215Z,29.53
2023-04-11T04:11:14.268Z,29.52
2023-04-11T04:12:14.339Z,29.52
2023-04-11T04:13:14.391Z,29.50
2023-04-11T04:14:14.455Z,29.50
2023-04-11T04:15:14.523Z,29.49
2023-04-11T04:16:14.644Z,29.46
2023-04-11T04:17:14.685Z,29.45
2023-04-11T04:18:14.661Z,29.40
2023-04-11T04:19:14.685Z,29.42
2023-04-11T04:20:14.744Z,29.37
2023-04-11T04:21:14.731Z,29.35
2023-04-11T04:22:14.762Z,29.35
2023-04-11T04:23:14.769Z,29.36
2023-04-11T04:24:14.769Z,29.36
2023-04-11T04:25:14.786Z,29.30
2023-04-11T04:26:14.833Z,29.30
2023-04-11T04:27:14.770Z,29.26
2023-04-11T04:28:14.788Z,29.28
2023-04-11T04:29:14.817Z,29.24
2023-04-11T04:30:14.821Z,29.22
2023-04-11T04:31:14.845Z,29.22
2023-04-11T04:32:14.826Z,29.22
2023-04-11T04:33:14.848Z,29.24
2023-04-11T04:34:14.792Z,29.22
2023-04-11T04:35:14.793Z,29.21
2023-04-11T04:36:14.794Z,29.19
2023-04-11T04:37:14.818Z,29.18
2023-04-11T04:38:14.819Z,29.21
2023-04-11T04:39:14.827Z,29.19
2023-04-11T04:40:14.851Z,29.21
2023-04-11T04:41:14.975Z,29.18
2023-04-11T04:42:14.903Z,29.21
2023-04-11T04:43:14.998Z,29.21
2023-04-11T04:44:15.062Z,29.21
2023-04-11T04:45:15.063Z,29.22
2023-04-11T04:46:15.205Z,29.19
2023-04-11T04:47:15.228Z,29.21
2023-04-11T04:48:15.307Z,29.21
2023-04-11T04:49:15.336Z,29.22
2023-04-11T04:50:15.428Z,29.22
2023-04-11T04:51:15.459Z,29.21
2023-04-11T04:52:15.537Z,29.22
2023-04-11T04:53:15.573Z,29.24
2023-04-11T04:54:15.640Z,29.24
2023-04-11T04:55:15.707Z,29.22
2023-04-11T04:56:15.775Z,29.25
2023-04-11T04:57:15.814Z,29.26
2023-04-11T04:58:15.881Z,29.24
2023-04-11T04:59:15.936Z,29.24
2023-04-11T05:00:15.994Z,29.24
2023-04-11T05:01:16.124Z,29.24
2023-04-11T05:02:16.170Z,29.21
2023-04-11T05:03:16.365Z,29.21
2023-04-11T05:04:16.409Z,29.22
2023-04-11T05:05:16.265Z,29.22
2023-04-11T05:06:17.017Z,29.21
2023-04-11T05:07:16.450Z,29.21
2023-04-11T05:08:16.459Z,29.22
2023-04-11T05:09:16.518Z,29.24
2023-04-11T05:10:16.611Z,29.22
2023-04-11T05:11:16.629Z,29.25
2023-04-11T05:12:16.728Z,29.26
2023-04-11T05:13:16.792Z,29.22
2023-04-11T05:14:16.841Z,29.25
2023-04-11T05:15:16.908Z,29.24
2023-04-11T05:16:16.974Z,29.25
2023-04-11T05:17:17.027Z,29.24
2023-04-11T05:18:17.107Z,29.25
2023-04-11T05:19:17.143Z,29.25
2023-04-11T05:20:17.218Z,29.22
2023-04-11T05:21:17.262Z,29.25
2023-04-11T05:22:17.368Z,29.25
2023-04-11T05:23:17.428Z,29.24
2023-04-11T05:24:17.496Z,29.25
2023-04-11T05:25:17.535Z,29.26
2023-04-11T05:26:17.591Z,29.25
2023-04-11T05:27:17.659Z,29.24
2023-04-11T05:28:17.714Z,29.24
2023-04-11T05:29:17.779Z,29.24
2023-04-11T05:30:17.846Z,29.24
2023-04-11T05:31:18.028Z,29.24
2023-04-11T05:32:17.956Z,29.26
2023-04-11T05:33:18.003Z,29.26
2023-04-11T05:34:18.055Z,29.24
2023-04-11T05:35:18.184Z,29.25
2023-04-11T05:36:18.238Z,29.21
2023-04-11T05:37:18.299Z,29.22
2023-04-11T05:38:18.294Z,29.21
2023-04-11T05:39:18.368Z,29.24
2023-04-11T05:40:18.416Z,29.21
2023-04-11T05:41:18.418Z,29.21
2023-04-11T05:42:18.494Z,29.19
2023-04-11T05:43:18.464Z,29.18
2023-04-11T05:44:18.498Z,29.15
2023-04-11T05:45:18.666Z,29.15
2023-04-11T05:46:18.480Z,29.14
2023-04-11T05:47:18.575Z,29.12
2023-04-11T05:48:18.473Z,29.11
2023-04-11T05:49:18.524Z,29.04
2023-04-11T05:50:18.486Z,29.07
2023-04-11T05:51:18.496Z,29.08
2023-04-11T05:52:18.532Z,29.09
2023-04-11T05:53:18.451Z,29.05
2023-04-11T05:54:18.512Z,29.01
2023-04-11T05:55:18.522Z,28.98
2023-04-11T05:56:18.486Z,28.95
2023-04-11T05:57:18.541Z,28.94
2023-04-11T05:58:25.122Z,28.82
2023-04-11T05:59:23.906Z,28.78
2023-04-11T06:00:19.579Z,28.75
2023-04-11T06:01:18.691Z,28.70
2023-04-11T06:02:18.669Z,28.70
2023-04-11T06:03:18.610Z,28.67
2023-04-11T06:04:18.629Z,28.63
2023-04-11T06:05:19.540Z,28.61
2023-04-11T06:06:18.503Z,28.59
2023-04-11T06:07:18.517Z,28.57
2023-04-11T06:08:18.631Z,28.56
2023-04-11T06:09:18.722Z,28.56
2023-04-11T06:10:18.454Z,28.50
2023-04-11T06:11:18.453Z,28.49
2023-04-11T06:12:18.487Z,28.47
2023-04-11T06:13:18.433Z,28.49
2023-04-11T06:14:18.492Z,28.43
2023-04-11T06:15:18.546Z,28.42
2023-04-11T06:16:18.598Z,28.38
2023-04-11T06:17:18.641Z,28.39
2023-04-11T06:18:18.707Z,28.36
2023-04-11T06:19:18.726Z,28.33
2023-04-11T06:20:18.808Z,28.33
2023-04-11T06:21:18.843Z,28.32
2023-04-11T06:22:18.903Z,28.29
2023-04-11T06:23:18.916Z,28.26
2023-04-11T06:24:18.951Z,28.23
2023-04-11T06:25:18.985Z,28.23
2023-04-11T06:26:19.036Z,28.20
2023-04-11T06:27:19.050Z,28.19
2023-04-11T06:28:19.041Z,28.18
2023-04-11T06:29:19.058Z,28.18
2023-04-11T06:30:19.069Z,28.12
2023-04-11T06:31:19.047Z,28.08
2023-04-11T06:32:19.025Z,28.08
2023-04-11T06:33:19.035Z,28.06
2023-04-11T06:34:18.993Z,28.06
2023-04-11T06:35:19.000Z,28.08
2023-04-11T06:36:19.254Z,28.09
2023-04-11T06:37:19.114Z,28.12
2023-04-11T06:38:19.146Z,28.18
2023-04-11T06:39:19.195Z,28.19
2023-04-11T06:40:19.681Z,28.23
2023-04-11T06:41:19.298Z,28.25
2023-04-11T06:42:19.313Z,28.27
2023-04-11T06:43:19.366Z,28.32
2023-04-11T06:44:19.376Z,28.33
2023-04-11T06:45:19.542Z,28.36
2023-04-11T06:46:19.507Z,28.40
2023-04-11T06:47:19.614Z,28.42
2023-04-11T06:48:19.545Z,28.44
2023-04-11T06:49:19.563Z,28.46
2023-04-11T06:50:19.711Z,28.49
2023-04-11T06:51:19.720Z,28.53
2023-04-11T06:52:19.771Z,28.49
2023-04-11T06:53:19.832Z,28.50
2023-04-11T06:54:19.910Z,28.52
2023-04-11T06:55:20.154Z,28.54
2023-04-11T06:56:20.021Z,28.56
2023-04-11T06:57:20.072Z,28.54
2023-04-11T06:58:20.169Z,28.57
2023-04-11T06:59:20.179Z,28.57
2023-04-11T07:00:20.221Z,28.59
2023-04-11T07:01:20.334Z,28.61
2023-04-11T07:02:20.517Z,28.63
2023-04-11T07:03:20.514Z,28.61
2023-04-11T07:04:20.678Z,28.63
2023-04-11T07:05:20.564Z,28.61
2023-04-11T07:06:20.583Z,28.61
2023-04-11T07:07:20.663Z,28.64
2023-04-11T07:08:20.688Z,28.63
2023-04-11T07:09:20.748Z,28.64
2023-04-11T07:10:20.794Z,28.64
2023-04-11T07:11:20.832Z,28.66
2023-04-11T07:12:20.922Z,28.67
2023-04-11T07:13:20.987Z,28.66
2023-04-11T07:14:21.032Z,28.64
2023-04-11T07:15:21.056Z,28.64
2023-04-11T07:16:21.153Z,28.64
2023-04-11T07:17:21.120Z,28.63
2023-04-11T07:18:21.133Z,28.63
2023-04-11T07:19:21.133Z,28.64
2023-04-11T07:20:21.195Z,28.64
2023-04-11T07:21:21.203Z,28.67
2023-04-11T07:22:21.202Z,28.69
2023-04-11T07:23:23.476Z,28.66
2023-04-11T07:24:21.383Z,28.71
2023-04-11T07:25:21.343Z,28.70
2023-04-11T07:26:21.388Z,28.71
2023-04-11T07:27:21.409Z,28.71
2023-04-11T07:28:21.443Z,28.75
2023-04-11T07:29:21.440Z,28.75
2023-04-11T07:30:21.461Z,28.75
2023-04-11T07:31:21.766Z,28.75
2023-04-11T07:32:21.779Z,28.74
2023-04-11T07:33:21.549Z,28.64
2023-04-11T07:34:21.558Z,28.61
2023-04-11T07:35:21.586Z,28.56
2023-04-11T07:36:21.670Z,28.44
2023-04-11T07:37:21.662Z,28.35
2023-04-11T07:38:21.694Z,28.26
2023-04-11T07:39:21.615Z,28.23
2023-04-11T07:40:21.699Z,28.22
2023-04-11T07:41:21.634Z,28.15
2023-04-11T07:42:21.621Z,28.15
2023-04-11T07:43:21.639Z,28.18
2023-04-11T07:44:22.202Z,28.18
2023-04-11T07:45:21.762Z,28.18
2023-04-11T07:46:21.762Z,28.19
2023-04-11T07:47:21.881Z,28.19
2023-04-11T07:48:21.895Z,28.23
2023-04-11T07:49:21.973Z,28.16
2023-04-11T07:50:21.969Z,27.92
2023-04-11T07:51:22.014Z,27.97
2023-04-11T07:52:22.012Z,27.85
2023-04-11T07:53:22.017Z,27.80
2023-04-11T07:54:22.034Z,27.72
2023-04-11T07:55:22.126Z,27.74
2023-04-11T07:56:22.157Z,27.74
2023-04-11T07:57:22.159Z,27.81
2023-04-11T07:58:22.167Z,27.83
2023-04-11T07:59:22.165Z,27.91
2023-04-11T08:00:22.214Z,27.95
2023-04-11T08:01:22.245Z,28.02
2023-04-11T08:02:22.454Z,28.08
2023-04-11T08:03:22.487Z,28.15
2023-04-11T08:04:22.560Z,28.22
2023-04-11T08:05:22.445Z,28.30
2023-04-11T08:06:22.541Z,28.35
2023-04-11T08:07:22.511Z,28.42
2023-04-11T08:08:22.565Z,28.44
2023-04-11T08:09:22.705Z,28.53
2023-04-11T08:10:22.615Z,28.54
2023-04-11T08:11:22.620Z,28.59
2023-04-11T08:12:22.680Z,28.59
2023-04-11T08:13:22.671Z,28.59
2023-04-11T08:14:22.744Z,28.61
2023-04-11T08:15:22.747Z,28.61
2023-04-11T08:16:22.744Z,28.66
2023-04-11T08:17:28.066Z,28.69
2023-04-11T08:18:23.813Z,28.69
2023-04-11T08:19:22.793Z,28.69
2023-04-11T08:20:22.738Z,28.71
2023-04-11T08:21:22.741Z,28.73
2023-04-11T08:22:22.738Z,28.73
2023-04-11T08:23:22.814Z,28.73
2023-04-11T08:24:22.808Z,28.78
2023-04-11T08:25:22.894Z,28.77
2023-04-11T08:26:22.880Z,28.80
2023-04-11T08:27:22.869Z,28.80
2023-04-11T08:28:23.278Z,28.73
2023-04-11T08:29:22.951Z,28.75
2023-04-11T08:30:22.961Z,28.73
2023-04-11T08:31:23.071Z,28.67
2023-04-11T08:32:24.569Z,28.66
2023-04-11T08:33:23.073Z,28.63
2023-04-11T08:34:23.158Z,28.60
2023-04-11T08:35:23.138Z,28.59
2023-04-11T08:36:23.201Z,28.54
2023-04-11T08:37:23.253Z,28.56
2023-04-11T08:38:23.291Z,28.52
2023-04-11T08:39:23.376Z,28.52
2023-04-11T08:40:24.559Z,28.46
2023-04-11T08:41:23.748Z,28.44
2023-04-11T08:42:23.585Z,28.42
2023-04-11T08:43:23.579Z,28.38
2023-04-11T08:44:23.601Z,28.33
2023-04-11T08:45:23.582Z,28.26
2023-04-11T08:46:23.830Z,28.26
2023-04-11T08:47:23.674Z,28.23
2023-04-11T08:48:23.651Z,28.20
2023-04-11T08:49:23.631Z,28.15
2023-04-11T08:50:23.654Z,28.13
2023-04-11T08:51:23.619Z,28.15
2023-04-11T08:52:23.653Z,28.15
2023-04-11T08:53:23.751Z,28.16
2023-04-11T08:54:23.665Z,28.16
2023-04-11T08:55:23.739Z,28.22
2023-04-11T08:56:23.784Z,28.26
2023-04-11T08:57:23.832Z,28.29
2023-04-11T08:58:23.895Z,28.33
2023-04-11T08:59:23.968Z,28.40
2023-04-11T09:00:24.081Z,28.46
2023-04-11T09:01:24.042Z,28.49
2023-04-11T09:02:24.249Z,28.54
2023-04-11T09:03:24.246Z,28.60
2023-04-11T09:04:24.112Z,28.64
2023-04-11T09:05:24.111Z,28.69
2023-04-11T09:06:24.163Z,28.74
2023-04-11T09:07:24.150Z,28.78
2023-04-11T09:08:24.236Z,28.84
2023-04-11T09:09:24.246Z,28.90
2023-04-11T09:10:24.278Z,28.90
2023-04-11T09:11:24.779Z,28.95
2023-04-11T09:12:24.260Z,28.98
2023-04-11T09:13:24.373Z,29.02
2023-04-11T09:14:24.305Z,29.02
2023-04-11T09:15:24.341Z,29.08
2023-04-11T09:16:24.349Z,29.11
2023-04-11T09:17:24.341Z,29.11
2023-04-11T09:18:24.307Z,29.15
2023-04-11T09:19:24.319Z,29.18
2023-04-11T09:20:24.722Z,29.22
2023-04-11T09:21:24.343Z,29.25
2023-04-11T09:22:24.442Z,29.29
2023-04-11T09:23:27.176Z,29.32
2023-04-11T09:24:24.472Z,29.33
2023-04-11T09:25:24.475Z,29.33
2023-04-11T09:26:24.769Z,29.33
2023-04-11T09:27:24.474Z,29.36
2023-04-11T09:28:24.430Z,29.37
2023-04-11T09:29:24.416Z,29.39
2023-04-11T09:30:24.456Z,29.40
2023-04-11T09:31:24.432Z,29.44
2023-04-11T09:32:24.411Z,29.45
2023-04-11T09:33:24.468Z,29.44
2023-04-11T09:34:24.418Z,29.44
2023-04-11T09:35:24.426Z,29.45
2023-04-11T09:36:24.382Z,29.46
2023-04-11T09:37:24.345Z,29.46
2023-04-11T09:38:24.390Z,29.46
2023-04-11T09:39:24.350Z,29.45
2023-04-11T09:40:24.304Z,29.42
2023-04-11T09:41:24.465Z,29.40
2023-04-11T09:42:24.289Z,29.35
2023-04-11T09:43:24.378Z,29.35
2023-04-11T09:44:24.341Z,29.39
2023-04-11T09:45:24.342Z,29.39
2023-04-11T09:46:24.330Z,29.39
2023-04-11T09:47:24.327Z,29.37
2023-04-11T09:48:32.024Z,29.42
2023-04-11T09:49:25.266Z,29.44
2023-04-11T09:50:24.266Z,29.48
2023-04-11T09:52:24.282Z,29.52
2023-04-11T09:53:24.246Z,29.55
2023-04-11T09:54:24.255Z,29.56
2023-04-11T09:55:24.273Z,29.57
2023-04-11T09:56:24.217Z,29.60
2023-04-11T09:57:24.218Z,29.59
2023-04-11T09:58:24.217Z,29.62
2023-04-11T09:59:24.196Z,29.60
2023-04-11T10:00:24.260Z,29.62
2023-04-11T10:01:24.213Z,29.66
2023-04-11T10:02:24.228Z,29.64
2023-04-11T10:03:24.201Z,29.64
2023-04-11T10:04:24.184Z,29.63
2023-04-11T10:05:24.158Z,29.66
2023-04-11T10:06:24.160Z,29.72
2023-04-11T10:07:24.148Z,29.72
2023-04-11T10:08:24.135Z,29.76
2023-04-11T10:09:24.138Z,29.77
2023-04-11T10:10:24.142Z,29.79
2023-04-11T10:11:24.449Z,29.84
2023-04-11T10:12:24.163Z,29.84
2023-04-11T10:13:24.128Z,29.85
2023-04-11T10:14:24.107Z,29.87
2023-04-11T10:15:24.118Z,29.90
2023-04-11T10:16:24.153Z,29.91
2023-04-11T10:17:24.602Z,29.91
2023-04-11T10:18:24.052Z,29.94
2023-04-11T10:19:24.061Z,29.94
2023-04-11T10:20:24.061Z,29.96
2023-04-11T10:21:24.071Z,29.93
2023-04-11T10:22:24.129Z,29.97
2023-04-11T10:23:24.067Z,29.94
2023-04-11T10:24:24.030Z,29.99
2023-04-11T10:25:24.037Z,29.96
2023-04-11T10:26:24.047Z,29.97
2023-04-11T10:27:24.010Z,29.94
2023-04-11T10:28:23.991Z,29.96
2023-04-11T10:29:24.011Z,29.87
2023-04-11T10:30:23.997Z,29.80
2023-04-11T10:31:24.051Z,29.69
2023-04-11T10:32:24.007Z,29.62
2023-04-11T10:33:24.011Z,29.53
2023-04-11T10:34:23.946Z,29.49
2023-04-11T10:35:25.483Z,29.45
2023-04-11T10:36:24.392Z,29.37
2023-04-11T10:37:23.927Z,29.40
2023-04-11T10:38:23.942Z,29.42
2023-04-11T10:39:23.912Z,29.40
2023-04-11T10:40:23.958Z,29.37
2023-04-11T10:41:23.915Z,29.44
2023-04-11T10:42:23.890Z,29.49
2023-04-11T10:43:23.913Z,29.50
2023-04-11T10:44:23.916Z,29.52
2023-04-11T10:45:23.863Z,29.52
2023-04-11T10:46:23.912Z,29.56
2023-04-11T10:47:23.906Z,29.55
2023-04-11T10:48:23.910Z,29.55
2023-04-11T10:49:23.845Z,29.60
2023-04-11T10:50:24.216Z,29.63
2023-04-11T10:51:23.863Z,29.64
2023-04-11T10:52:23.990Z,29.73
2023-04-11T10:53:23.852Z,29.76
2023-04-11T10:54:23.838Z,29.79
2023-04-11T10:55:23.843Z,29.87
2023-04-11T10:56:23.812Z,29.96
2023-04-11T10:57:23.812Z,29.99
2023-04-11T10:58:23.816Z,30.04
2023-04-11T10:59:23.818Z,30.10
2023-04-11T11:00:23.836Z,30.12
2023-04-11T11:01:32.070Z,30.19
2023-04-11T11:02:24.937Z,30.27
2023-04-11T11:03:23.861Z,30.29
2023-04-11T11:04:23.796Z,30.32
2023-04-11T11:05:23.738Z,30.36
2023-04-11T11:06:23.754Z,30.38
2023-04-11T11:07:23.741Z,30.43
2023-04-11T11:08:23.732Z,30.46
2023-04-11T11:09:23.777Z,30.46
2023-04-11T11:10:23.700Z,30.52
2023-04-11T11:11:23.764Z,30.54
2023-04-11T11:12:23.675Z,30.56
2023-04-11T11:13:23.684Z,30.59
2023-04-11T11:14:23.755Z,30.62
2023-04-11T11:15:23.797Z,30.63
2023-04-11T11:16:23.911Z,30.63
2023-04-11T11:17:23.981Z,30.66
2023-04-11T11:18:24.017Z,30.69
2023-04-11T11:19:24.118Z,30.70
2023-04-11T11:20:24.152Z,30.73
2023-04-11T11:21:27.358Z,30.75
2023-04-11T11:22:24.151Z,30.72
2023-04-11T11:23:24.181Z,30.66
2023-04-11T11:24:24.314Z,30.61
2023-04-11T11:25:24.172Z,30.54
2023-04-11T11:26:24.202Z,30.45
2023-04-11T11:27:24.206Z,30.43
2023-04-11T11:28:24.129Z,30.36
2023-04-11T11:29:24.194Z,30.32
2023-04-11T11:30:24.122Z,30.31
2023-04-11T11:31:24.240Z,30.27
2023-04-11T11:32:24.183Z,30.25
2023-04-11T11:33:24.102Z,30.21
2023-04-11T11:34:24.381Z,30.19
2023-04-11T11:35:24.133Z,30.18
2023-04-11T11:36:24.101Z,30.12
2023-04-11T11:37:24.064Z,30.07
2023-04-11T11:38:24.093Z,30.05
2023-04-11T11:39:24.095Z,30.01
2023-04-11T11:40:24.082Z,30.00
2023-04-11T11:41:24.052Z,29.99
2023-04-11T11:42:24.069Z,30.00
2023-04-11T11:43:24.064Z,29.94
2023-04-11T11:44:24.019Z,29.94
2023-04-11T11:46:24.035Z,29.88
2023-04-11T11:47:24.139Z,29.85
2023-04-11T11:48:24.078Z,29.81
2023-04-11T11:49:24.052Z,29.83
2023-04-11T11:50:24.008Z,29.80
2023-04-11T11:51:23.977Z,29.81
2023-04-11T11:52:23.986Z,29.80
2023-04-11T11:53:23.997Z,29.79
2023-04-11T11:54:23.961Z,29.77
2023-04-11T11:55:24.002Z,29.74
2023-04-11T11:56:23.949Z,29.76
2023-04-11T11:57:23.924Z,29.76
2023-04-11T11:58:23.930Z,29.74
2023-04-11T11:59:24.274Z,29.72
2023-04-11T12:00:23.949Z,29.67
2023-04-11T12:01:23.995Z,29.59
2023-04-11T12:02:24.013Z,29.57
2023-04-11T12:03:24.134Z,29.56
2023-04-11T12:04:24.180Z,29.44
2023-04-11T12:05:24.102Z,29.44
2023-04-11T12:06:24.134Z,29.33
2023-04-11T12:07:24.222Z,29.18
2023-04-11T12:08:24.251Z,29.25
2023-04-11T12:09:24.329Z,29.24
2023-04-11T12:10:24.350Z,29.26
2023-04-11T12:11:24.466Z,29.24
2023-04-11T12:12:24.517Z,29.26
2023-04-11T12:13:24.545Z,29.26
2023-04-11T12:14:24.608Z,29.25
2023-04-11T12:15:24.702Z,29.26
2023-04-11T12:16:24.796Z,29.28
2023-04-11T12:17:24.809Z,29.29
2023-04-11T12:18:24.859Z,29.28
2023-04-11T12:19:24.897Z,29.32
2023-04-11T12:20:24.909Z,29.37
2023-04-11T12:21:24.944Z,29.37
2023-04-11T12:22:25.093Z,29.36
2023-04-11T12:23:25.063Z,29.40
2023-04-11T12:24:25.090Z,29.46
2023-04-11T12:25:25.097Z,29.46
2023-04-11T12:26:25.137Z,29.49
2023-04-11T12:27:25.322Z,29.52
2023-04-11T12:28:25.220Z,29.56
2023-04-11T12:29:26.391Z,29.59
2023-04-11T12:30:25.217Z,29.56
2023-04-11T12:31:25.337Z,29.62
2023-04-11T12:32:25.273Z,29.64
2023-04-11T12:33:25.258Z,29.66
2023-04-11T12:34:25.277Z,29.73
2023-04-11T12:35:25.311Z,29.72
2023-04-11T12:36:25.339Z,29.74
2023-04-11T12:37:25.296Z,29.74
2023-04-11T12:38:25.297Z,29.76
2023-04-11T12:39:25.331Z,29.76
2023-04-11T12:40:25.361Z,29.77
2023-04-11T12:42:27.131Z,29.81
2023-04-11T12:43:25.297Z,29.80
2023-04-11T12:44:25.313Z,29.80
2023-04-11T12:45:25.344Z,29.83
2023-04-11T12:46:25.432Z,29.83
2023-04-11T12:47:25.301Z,29.81
2023-04-11T12:48:25.261Z,29.83
2023-04-11T12:49:25.266Z,29.81
2023-04-11T12:50:25.328Z,29.81
2023-04-11T12:51:25.243Z,29.79
2023-04-11T12:52:25.227Z,29.70
2023-04-11T12:53:25.299Z,29.70
2023-04-11T12:54:25.274Z,29.60
2023-04-11T12:55:25.355Z,29.55